Time;durP1;ratioP1;P1;durP2;ratioP2;P2;SDS_P1;SDS_P2;PMS_P1;PMS_P2;Temp;Humidity;BMP_temperature;BMP_pressure;BME280_temperature;BME280_humidity;BME280_pressure;Samples;Min_cycle;Max_cycle;Signal;HPM_P1;HPM_P2
2023/06/27 00:02:00;;;;;;;5.80;5.50;;;;;;;15.33;79.97;101428.28;6034856;23;20023;-83
2023/06/27 00:04:28;;;;;;;5.57;5.20;;;;;;;12.17;79.52;100910.94;6064943;23;20033;-83
2023/06/27 00:06:55;;;;;;;5.40;5.10;;;;;;;14.31;79.61;101290.72;6089300;23;20036;-83
2023/06/27 00:09:22;;;;;;;12.05;5.25;;;;;;;12.37;80.40;101012.47;6085737;23;20100;-84
2023/06/27 00:11:49;;;;;;;8.32;5.35;;;;;;;14.16;81.01;101295.09;6091882;23;20047;-85
2023/06/27 00:14:18;;;;;;;5.60;5.30;;;;;;;13.78;81.12;101208.44;6064881;23;20051;-84
2023/06/27 00:16:46;;;;;;;6.07;5.50;;;;;;;14.31;81.35;101307.41;6078828;23;20040;-84
2023/06/27 00:19:15;;;;;;;5.97;5.60;;;;;;;13.71;81.96;101215.84;6067372;23;20319;-84
2023/06/27 00:21:42;;;;;;;5.50;5.20;;;;;;;13.68;82.30;101252.09;6097396;23;20027;-85
2023/06/27 00:24:09;;;;;;;6.00;5.63;;;;;;;13.15;82.24;101167.13;6099199;23;20022;-84
2023/06/27 00:26:36;;;;;;;5.72;5.43;;;;;;;12.52;83.10;101036.25;6097588;23;20021;-84
2023/06/27 00:29:03;;;;;;;5.38;5.13;;;;;;;12.62;82.86;101057.66;6074198;23;20039;-82
2023/06/27 00:31:29;;;;;;;5.50;5.20;;;;;;;12.05;82.99;100984.44;6070462;23;20041;-79
2023/06/27 00:33:56;;;;;;;8.05;5.43;;;;;;;14.53;83.84;101369.53;6087820;23;20092;-79
2023/06/27 00:36:22;;;;;;;5.40;5.10;;;;;;;14.69;83.74;101395.94;6084205;23;20045;-79
2023/06/27 00:38:49;;;;;;;7.38;5.20;;;;;;;13.03;83.55;101141.44;6063569;23;20061;-80
2023/06/27 00:41:16;;;;;;;6.25;5.70;;;;;;;15.12;83.61;101457.72;6088055;23;20346;-80
2023/06/27 00:43:43;;;;;;;5.72;5.43;;;;;;;13.44;82.53;101183.97;6082721;23;20085;-80
2023/06/27 00:46:10;;;;;;;5.90;5.50;;;;;;;15.12;83.21;101462.16;6063691;23;20482;-79
2023/06/27 00:48:38;;;;;;;5.78;5.38;;;;;;;12.07;82.76;100993.09;6054819;23;20022;-79
2023/06/27 00:51:07;;;;;;;5.85;5.45;;;;;;;14.83;83.51;101430.31;6084415;23;20030;-80
2023/06/27 00:53:34;;;;;;;5.63;5.32;;;;;;;12.44;83.22;101046.38;6070021;23;20048;-80
2023/06/27 00:56:02;;;;;;;5.60;5.30;;;;;;;13.64;83.95;101242.66;6057685;23;20028;-80
2023/06/27 00:58:28;;;;;;;6.20;5.68;;;;;;;14.56;83.45;101378.16;6063483;23;20037;-79
2023/06/27 01:00:55;;;;;;;5.47;5.18;;;;;;;12.95;83.61;101124.28;6090548;23;20034;-81
2023/06/27 01:03:22;;;;;;;5.40;5.10;;;;;;;13.05;83.29;101156.25;6091276;23;20041;-78
2023/06/27 01:05:49;;;;;;;5.75;5.40;;;;;;;13.66;83.35;101289.09;6060076;23;20088;-80
2023/06/27 01:08:25;;;;;;;5.82;5.25;;;;;;;15.02;84.48;101469.78;6054076;23;20275;-81
2023/06/27 01:11:13;;;;;;;5.68;5.30;;;;;;;12.16;84.01;101035.53;6082421;23;20412;-79
2023/06/27 01:13:41;;;;;;;5.75;5.30;;;;;;;12.29;84.19;101069.09;6078190;23;20037;-82
2023/06/27 01:16:09;;;;;;;5.78;5.38;;;;;;;15.00;84.61;101474.28;6040333;23;20038;-80
2023/06/27 01:18:39;;;;;;;5.70;5.40;;;;;;;15.00;83.96;101469.00;6036547;23;20545;-80
2023/06/27 01:21:09;;;;;;;6.15;5.75;;;;;;;13.55;84.54;101292.34;6064018;23;20105;-80
2023/06/27 01:23:54;;;;;;;5.40;5.10;;;;;;;12.85;84.40;101152.06;6061207;23;20092;-81
2023/06/27 01:26:22;;;;;;;6.00;5.40;;;;;;;14.92;85.20;101471.25;6056687;23;20024;-80
2023/06/27 01:28:49;;;;;;;5.80;5.32;;;;;;;14.88;85.16;101494.34;6062861;23;20324;-80
2023/06/27 01:31:55;;;;;;;6.20;5.70;;;;;;;12.86;85.44;101195.91;6036529;23;20086;-80
2023/06/27 01:34:30;;;;;;;5.45;5.15;;;;;;;12.43;85.94;101136.78;6041108;23;20034;-81
2023/06/27 01:37:07;;;;;;;5.95;5.40;;;;;;;12.78;87.33;101183.16;6064180;23;20042;-80
2023/06/27 01:40:09;;;;;;;5.50;5.18;;;;;;;14.68;87.88;101487.56;6065213;23;20032;-82
2023/06/27 01:42:41;;;;;;;5.82;5.32;;;;;;;14.64;88.85;101486.03;6059272;23;20045;-79
2023/06/27 01:45:14;;;;;;;5.68;5.30;;;;;;;13.74;89.37;101349.34;6037204;23;20055;-78
2023/06/27 01:47:44;;;;;;;;;;;;;;;14.63;89.08;101489.59;6040880;23;20134;-79
2023/06/27 01:50:12;;;;;;;6.20;5.80;;;;;;;14.63;89.63;101478.19;6068226;23;19981;-82
2023/06/27 01:52:39;;;;;;;5.45;5.18;;;;;;;14.18;90.02;101403.25;6071982;23;20104;-81
2023/06/27 01:55:06;;;;;;;5.80;5.40;;;;;;;14.10;89.57;101430.06;6074408;23;20046;-79
2023/06/27 01:57:35;;;;;;;5.88;5.38;;;;;;;14.61;89.97;101480.91;6075256;23;20018;-79
2023/06/27 02:00:02;;;;;;;5.82;5.53;;;;;;;14.61;89.99;101473.00;6076225;23;20085;-79
2023/06/27 02:02:29;;;;;;;5.65;5.25;;;;;;;12.61;90.06;101182.34;6048047;23;20006;-80
2023/06/27 02:04:56;;;;;;;6.20;5.70;;;;;;;14.61;90.70;101480.06;6078272;23;20058;-79
2023/06/27 02:07:22;;;;;;;5.80;5.40;;;;;;;14.58;91.43;101480.25;6053877;23;20042;-79
2023/06/27 02:09:51;;;;;;;5.47;5.18;;;;;;;12.73;90.36;101197.53;6078160;23;20029;-79
2023/06/27 02:12:17;;;;;;;5.30;5.00;;;;;;;13.38;90.65;101329.31;6077650;23;20018;-80
2023/06/27 02:14:44;;;;;;;5.45;5.05;;;;;;;12.55;90.44;101187.00;6082397;23;20176;-79
2023/06/27 02:17:10;;;;;;;5.50;5.20;;;;;;;14.42;90.68;101490.78;6063180;23;20083;-79
2023/06/27 02:19:37;;;;;;;5.55;5.05;;;;;;;13.27;90.79;101324.59;6082680;23;20179;-79
2023/06/27 02:22:04;;;;;;;6.43;5.40;;;;;;;12.96;91.55;101296.38;6094843;23;20275;-80
2023/06/27 02:24:30;;;;;;;5.70;5.30;;;;;;;11.88;92.42;101137.84;6055880;23;20308;-79
2023/06/27 02:26:57;;;;;;;7.90;5.25;;;;;;;12.04;92.27;101174.75;6043306;23;20049;-80
2023/06/27 02:29:23;;;;;;;5.57;5.13;;;;;;;12.42;92.80;101227.22;6062091;23;20445;-81
2023/06/27 02:31:50;;;;;;;5.40;5.05;;;;;;;11.13;93.10;100992.66;6067150;23;20021;-80
2023/06/27 02:34:16;;;;;;;5.68;5.28;;;;;;;13.63;94.08;101426.44;6065217;23;20038;-80
2023/06/27 02:36:43;;;;;;;5.50;5.20;;;;;;;12.01;94.44;101160.00;6040214;23;20587;-80
2023/06/27 02:39:09;;;;;;;5.85;5.53;;;;;;;12.21;95.40;101201.06;6041882;23;20103;-80
2023/06/27 02:41:36;;;;;;;5.75;5.38;;;;;;;11.57;95.86;101111.31;6038352;23;20028;-81
2023/06/27 02:44:02;;;;;;;6.03;5.50;;;;;;;11.32;96.04;101077.47;6061781;23;20022;-79
2023/06/27 02:46:29;;;;;;;4.82;4.53;;;;;;;11.29;97.63;101029.50;6047464;23;20036;-82
2023/06/27 02:48:56;;;;;;;5.30;5.00;;;;;;;11.76;97.66;101141.91;6066737;23;20022;-81
2023/06/27 02:51:23;;;;;;;5.60;5.20;;;;;;;11.82;97.54;101107.44;6070217;23;20015;-82
2023/06/27 02:53:49;;;;;;;5.40;5.10;;;;;;;11.85;98.45;101162.50;6054827;23;20214;-82
2023/06/27 02:56:16;;;;;;;6.68;5.10;;;;;;;11.71;97.76;101125.53;6070641;23;20053;-82
2023/06/27 02:58:42;;;;;;;8.05;5.90;;;;;;;12.16;98.49;101209.19;6051374;23;20038;-79
2023/06/27 03:01:09;;;;;;;5.93;5.53;;;;;;;12.09;98.69;101191.19;6053454;23;20053;-82
2023/06/27 03:03:36;;;;;;;5.50;5.00;;;;;;;11.75;98.19;101125.31;6063531;23;20026;-80
2023/06/27 03:06:06;;;;;;;7.18;4.82;;;;;;;13.72;98.37;101414.53;6043866;23;20014;-82
2023/06/27 03:08:33;;;;;;;5.97;5.50;;;;;;;12.34;98.62;101238.97;6069595;23;20018;-80
2023/06/27 03:10:59;;;;;;;5.55;5.05;;;;;;;12.33;98.14;101220.66;6050399;23;20037;-81
2023/06/27 03:13:26;;;;;;;5.88;5.47;;;;;;;11.69;97.85;101096.69;6075971;23;20045;-82
2023/06/27 03:15:52;;;;;;;6.35;5.75;;;;;;;11.51;97.19;101030.13;6092395;23;20680;-80
2023/06/27 03:18:19;;;;;;;5.28;4.97;;;;;;;12.88;97.11;101278.34;6073551;23;20028;-79
2023/06/27 03:20:46;;;;;;;5.63;5.22;;;;;;;11.88;96.57;101107.13;6067555;23;20093;-81
2023/06/27 03:23:12;;;;;;;5.47;5.07;;;;;;;12.34;96.84;101180.22;6088964;23;20021;-80
2023/06/27 03:25:39;;;;;;;5.53;5.20;;;;;;;14.59;96.48;101522.41;6090807;23;20047;-81
2023/06/27 03:28:06;;;;;;;5.72;5.32;;;;;;;12.25;95.87;101142.09;6070372;23;20017;-81
2023/06/27 03:30:32;;;;;;;5.50;5.20;;;;;;;12.07;95.35;101119.38;6094252;23;20048;-81
2023/06/27 03:32:59;;;;;;;5.55;5.15;;;;;;;12.10;95.18;101125.31;6095053;23;20025;-82
2023/06/27 03:35:26;;;;;;;5.35;5.05;;;;;;;12.86;95.02;101238.06;6098471;23;20030;-80
2023/06/27 03:37:52;;;;;;;5.63;5.32;;;;;;;13.26;95.14;101333.44;6096422;23;20018;-81
2023/06/27 03:40:19;;;;;;;5.40;5.18;;;;;;;11.74;95.19;101094.66;6090368;23;20049;-82
2023/06/27 03:42:46;;;;;;;5.20;4.95;;;;;;;14.48;96.02;101575.81;6073094;23;20061;-81
2023/06/27 03:45:12;;;;;;;5.45;5.10;;;;;;;11.49;95.95;101018.84;6086873;23;20054;-82
2023/06/27 03:47:39;;;;;;;5.47;5.18;;;;;;;14.44;96.72;101570.78;6061241;23;20017;-82
2023/06/27 03:50:06;;;;;;;5.40;5.10;;;;;;;12.07;96.41;101179.88;6091214;23;20426;-82
2023/06/27 03:52:32;;;;;;;5.63;5.13;;;;;;;13.78;96.10;101435.31;6082719;23;20033;-81
2023/06/27 03:54:59;;;;;;;4.95;4.75;;;;;;;11.95;95.64;101131.38;6067692;23;20136;-82
2023/06/27 03:57:25;;;;;;;11.18;5.38;;;;;;;12.71;96.06;101252.91;6093829;23;20033;-79
2023/06/27 03:59:52;;;;;;;5.78;5.20;;;;;;;14.44;97.36;101541.75;6087357;23;20034;-81
2023/06/27 04:02:19;;;;;;;5.30;5.00;;;;;;;14.47;97.83;101523.06;6060161;23;20092;-79
2023/06/27 04:04:45;;;;;;;5.53;5.13;;;;;;;11.95;97.75;101131.38;6064346;23;20032;-80
2023/06/27 04:07:14;;;;;;;5.75;4.75;;;;;;;13.01;97.00;101298.75;6094632;23;20362;-79
2023/06/27 04:09:41;;;;;;;6.13;5.45;;;;;;;14.61;97.83;101531.09;6091748;23;20010;-79
2023/06/27 04:12:11;;;;;;;5.10;4.80;;;;;;;12.46;97.19;101194.53;6078262;23;20186;-80
2023/06/27 04:14:37;;;;;;;5.25;4.95;;;;;;;12.67;96.82;101250.47;6051381;23;20196;-79
2023/06/27 04:17:04;;;;;;;5.60;5.15;;;;;;;14.81;97.53;101529.97;6091303;23;20379;-81
2023/06/27 04:19:31;;;;;;;5.47;5.07;;;;;;;13.09;97.58;101252.66;6084179;23;20056;-80
2023/06/27 04:21:57;;;;;;;5.40;5.00;;;;;;;14.34;96.79;101422.56;6088022;23;20131;-79
2023/06/27 04:24:24;;;;;;;5.50;5.20;;;;;;;12.67;95.84;101176.75;6041278;23;20628;-80
2023/06/27 04:26:50;;;;;;;6.18;5.03;;;;;;;14.39;96.87;101412.56;6094119;23;20546;-80
2023/06/27 04:29:17;;;;;;;5.20;4.90;;;;;;;13.19;95.54;101224.00;6056595;23;20373;-80
2023/06/27 04:31:43;;;;;;;5.50;5.20;;;;;;;12.61;95.05;101074.38;6065394;23;20032;-80
2023/06/27 04:34:10;;;;;;;5.80;5.38;;;;;;;12.51;93.95;101072.28;6096043;23;20021;-80
2023/06/27 04:36:40;;;;;;;5.60;5.10;;;;;;;14.33;93.50;101415.56;6073298;23;20030;-84
2023/06/27 04:39:09;;;;;;;5.80;5.30;;;;;;;14.58;93.27;101385.16;6042464;23;20202;-79
2023/06/27 04:41:35;;;;;;;5.47;5.18;;;;;;;15.36;92.92;101518.88;6092787;23;20038;-79
2023/06/27 04:44:02;;;;;;;5.55;5.22;;;;;;;13.61;93.14;101259.53;6065400;23;20052;-78
2023/06/27 04:46:28;;;;;;;13.57;5.50;;;;;;;14.59;94.00;101416.75;6062395;23;20081;-80
2023/06/27 04:48:59;;;;;;;5.53;5.22;;;;;;;14.85;94.42;101460.16;6032382;23;20053;-81
2023/06/27 04:51:27;;;;;;;5.57;5.28;;;;;;;13.12;94.72;101191.84;6087037;23;20028;-81
2023/06/27 04:53:54;;;;;;;5.30;5.00;;;;;;;15.28;95.26;101547.56;6085130;23;20024;-81
2023/06/27 04:56:22;;;;;;;6.30;5.38;;;;;;;10.35;93.92;100782.97;6070687;23;20040;-82
2023/06/27 04:58:48;;;;;;;7.85;4.75;;;;;;;12.69;94.79;101165.22;6061061;23;20027;-81
2023/06/27 05:01:15;;;;;;;6.10;5.60;;;;;;;12.75;95.00;101142.97;6089680;23;20435;-79
2023/06/27 05:03:41;;;;;;;5.35;5.00;;;;;;;14.24;96.01;101379.13;6068964;23;20022;-81
2023/06/27 05:06:08;;;;;;;6.00;5.43;;;;;;;12.15;96.00;101040.91;6087494;23;20502;-79
2023/06/27 05:08:38;;;;;;;6.18;5.57;;;;;;;13.60;96.34;101278.91;6086029;23;20022;-80
2023/06/27 05:11:07;;;;;;;5.28;4.90;;;;;;;15.45;95.33;101519.25;6066943;23;20091;-81
2023/06/27 05:13:34;;;;;;;6.03;5.53;;;;;;;14.30;94.58;101310.16;6060136;23;20091;-81
2023/06/27 05:16:01;;;;;;;5.68;4.78;;;;;;;15.31;94.80;101464.53;6066759;23;20037;-83
2023/06/27 05:18:27;;;;;;;5.82;5.43;;;;;;;15.72;93.45;101443.53;6086454;23;20451;-83
2023/06/27 05:20:54;;;;;;;5.75;5.35;;;;;;;13.55;89.72;101047.09;6092910;23;20014;-80
2023/06/27 05:23:21;;;;;;;5.22;4.93;;;;;;;15.22;87.71;101229.78;6090053;23;20006;-81
2023/06/27 05:25:48;;;;;;;7.50;5.50;;;;;;;16.57;84.98;101443.44;6067950;23;20128;-80
2023/06/27 05:28:15;;;;;;;7.10;5.85;;;;;;;15.61;84.28;101294.28;6086334;23;20173;-80
2023/06/27 05:30:42;;;;;;;6.10;5.70;;;;;;;16.84;83.96;101500.94;6091520;23;20026;-79
2023/06/27 05:33:09;;;;;;;6.20;5.50;;;;;;;14.53;84.38;101060.50;6095147;23;20028;-79
2023/06/27 05:35:35;;;;;;;6.05;5.43;;;;;;;18.31;82.40;101530.66;6085434;23;20030;-80
2023/06/27 05:38:02;;;;;;;8.90;5.90;;;;;;;17.30;75.93;101273.22;6091259;23;20041;-81
2023/06/27 05:40:29;;;;;;;6.35;5.80;;;;;;;17.44;75.06;101284.63;6066367;23;20022;-80
2023/06/27 05:42:55;;;;;;;5.78;5.47;;;;;;;19.17;71.97;101454.38;6065994;23;20073;-79
2023/06/27 05:45:22;;;;;;;6.20;5.65;;;;;;;18.60;69.47;101307.09;6070392;23;20028;-79
2023/06/27 05:47:49;;;;;;;10.57;5.75;;;;;;;19.04;68.47;101305.47;6093637;23;20064;-81
2023/06/27 05:50:16;;;;;;;5.85;5.45;;;;;;;19.94;67.80;101387.13;6061730;23;20471;-80
2023/06/27 05:52:42;;;;;;;6.07;5.72;;;;;;;19.82;66.84;101385.44;6066385;23;20569;-83
2023/06/27 05:55:09;;;;;;;5.75;5.40;;;;;;;19.86;66.56;101334.44;6060574;23;20277;-80
2023/06/27 05:57:36;;;;;;;6.20;5.70;;;;;;;19.70;66.05;101337.50;6090306;23;20030;-81
2023/06/27 06:00:03;;;;;;;6.63;6.22;;;;;;;19.20;67.30;101329.03;6086100;23;20368;-79
2023/06/27 06:02:29;;;;;;;7.13;5.55;;;;;;;18.86;67.55;101238.63;6061505;23;20045;-81
2023/06/27 06:04:56;;;;;;;8.48;5.63;;;;;;;20.89;66.94;101423.78;6059854;23;20406;-83
2023/06/27 06:07:23;;;;;;;7.22;5.50;;;;;;;21.08;62.54;101334.97;6088020;23;20565;-82
2023/06/27 06:09:50;;;;;;;6.30;5.97;;;;;;;20.90;62.33;101180.84;6071065;23;20448;-81
2023/06/27 06:12:16;;;;;;;5.80;5.40;;;;;;;22.41;58.84;101278.59;6064378;23;20033;-81
2023/06/27 06:14:43;;;;;;;6.15;5.70;;;;;;;22.03;57.88;101157.31;6030896;23;20351;-80
2023/06/27 06:17:09;;;;;;;6.40;5.78;;;;;;;23.22;56.41;101244.13;6094409;23;20191;-80
2023/06/27 06:19:36;;;;;;;6.00;5.60;;;;;;;23.56;55.48;101243.50;6060108;23;20370;-82
2023/06/27 06:22:02;;;;;;;6.63;6.05;;;;;;;22.86;52.67;101031.72;6093779;23;20089;-81
2023/06/27 06:24:29;;;;;;;6.38;5.88;;;;;;;22.50;53.37;101075.31;6035236;23;20053;-81
2023/06/27 06:26:55;;;;;;;7.20;5.90;;;;;;;24.08;52.47;101173.13;6068647;23;20242;-82
2023/06/27 06:29:21;;;;;;;6.95;5.90;;;;;;;23.15;51.91;101063.63;6041572;23;20532;-81
2023/06/27 06:31:48;;;;;;;6.10;5.70;;;;;;;23.15;52.41;101102.97;6071917;23;20016;-81
2023/06/27 06:34:14;;;;;;;6.15;5.75;;;;;;;21.92;54.92;101032.75;6035867;23;20110;-81
2023/06/27 06:36:41;;;;;;;6.13;5.78;;;;;;;21.88;55.74;101080.28;6064062;23;20499;-81
2023/06/27 06:39:08;;;;;;;6.25;5.85;;;;;;;19.81;56.71;100835.94;6037196;23;20271;-80
2023/06/27 06:41:34;;;;;;;6.65;6.10;;;;;;;21.15;58.25;101103.94;6093114;23;20021;-79
2023/06/27 06:44:00;;;;;;;6.55;5.95;;;;;;;21.45;58.71;101150.22;6032949;23;20032;-80
2023/06/27 06:46:29;;;;;;;6.30;5.85;;;;;;;21.22;58.51;101128.25;6070683;23;20311;-82
2023/06/27 06:48:56;;;;;;;7.20;6.50;;;;;;;21.41;59.47;101170.97;6027982;23;20521;-80
2023/06/27 06:51:23;;;;;;;6.68;6.10;;;;;;;21.01;61.06;101238.59;6065889;23;20085;-82
2023/06/27 06:53:49;;;;;;;6.50;6.00;;;;;;;20.30;62.05;101191.31;6041937;23;20027;-81
2023/06/27 06:56:16;;;;;;;7.05;6.00;;;;;;;20.58;62.02;101215.63;6071830;23;20082;-79
2023/06/27 06:58:43;;;;;;;6.60;6.13;;;;;;;20.36;62.88;101187.31;6047788;23;20018;-78
2023/06/27 07:01:09;;;;;;;6.20;5.60;;;;;;;20.85;63.61;101295.13;6075704;23;20255;-82
2023/06/27 07:03:36;;;;;;;6.50;5.90;;;;;;;20.52;63.06;101226.81;6037618;23;20074;-79
2023/06/27 07:06:03;;;;;;;8.50;5.80;;;;;;;20.98;62.96;101294.06;6073593;23;20018;-80
2023/06/27 07:08:30;;;;;;;6.50;6.00;;;;;;;21.02;62.69;101295.47;6071076;23;20026;-78
2023/06/27 07:10:57;;;;;;;6.40;5.90;;;;;;;20.58;63.49;101271.63;6070785;23;20081;-79
2023/06/27 07:13:23;;;;;;;8.55;6.10;;;;;;;20.16;63.88;101194.34;6067546;23;20566;-80
2023/06/27 07:15:49;;;;;;;6.07;5.75;;;;;;;19.85;64.89;101210.25;6043016;23;20054;-80
2023/06/27 07:18:16;;;;;;;6.35;5.72;;;;;;;20.27;65.11;101294.72;6088507;23;20042;-83
2023/06/27 07:20:42;;;;;;;8.02;5.80;;;;;;;20.23;66.12;101271.97;6060407;23;20282;-80
2023/06/27 07:23:09;;;;;;;10.88;5.80;;;;;;;21.11;64.35;101340.06;6041721;23;20053;-81
2023/06/27 07:25:38;;;;;;;6.10;5.50;;;;;;;19.66;65.11;101194.06;6069760;23;20028;-79
2023/06/27 07:28:05;;;;;;;6.72;6.00;;;;;;;20.56;65.65;101345.56;6040048;23;20511;-79
2023/06/27 07:30:34;;;;;;;7.30;5.82;;;;;;;18.49;64.97;100996.06;6070601;23;20057;-82
2023/06/27 07:33:00;;;;;;;6.38;5.80;;;;;;;19.37;65.00;101149.41;6069613;23;20044;-81
2023/06/27 07:35:29;;;;;;;6.57;6.05;;;;;;;20.25;65.26;101270.84;6074746;23;20041;-82
2023/06/27 07:37:55;;;;;;;6.18;5.70;;;;;;;20.94;64.33;101325.50;6048460;23;20022;-82
2023/06/27 07:40:24;;;;;;;5.88;5.47;;;;;;;20.35;63.64;101222.94;6067173;23;20383;-81
2023/06/27 07:42:55;;;;;;;6.15;5.78;;;;;;;20.78;64.17;101307.28;6041547;23;20018;-81
2023/06/27 07:45:22;;;;;;;12.32;5.70;;;;;;;20.04;63.89;101150.91;6103685;23;20250;-83
2023/06/27 07:47:48;;;;;;;6.53;6.13;;;;;;;20.86;64.18;101311.97;6012021;23;20011;-81
2023/06/27 07:50:15;;;;;;;6.97;6.00;;;;;;;20.62;64.01;101240.25;6074577;23;21068;-81
2023/06/27 07:52:42;;;;;;;5.97;5.47;;;;;;;20.40;63.75;101199.38;6073077;23;20037;-81
2023/06/27 07:55:09;;;;;;;5.88;5.47;;;;;;;19.29;63.12;101030.28;6089892;23;20049;-81
2023/06/27 07:57:35;;;;;;;6.88;6.07;;;;;;;19.95;62.88;101094.94;6045693;23;20089;-81
2023/06/27 08:00:03;;;;;;;7.50;6.00;;;;;;;20.75;62.44;101264.03;6073036;23;20412;-83
2023/06/27 08:02:30;;;;;;;7.72;5.80;;;;;;;20.39;61.60;101124.91;6052493;23;20535;-81
2023/06/27 08:04:58;;;;;;;6.40;5.90;;;;;;;20.75;61.98;101189.34;6071550;23;20148;-81
2023/06/27 08:07:24;;;;;;;6.45;5.80;;;;;;;21.51;60.85;101227.94;6037878;23;20029;-81
2023/06/27 08:09:51;;;;;;;7.28;5.85;;;;;;;21.08;60.39;101122.31;6096729;23;20308;-84
2023/06/27 08:12:17;;;;;;;6.20;5.70;;;;;;;21.70;59.05;101151.47;6070199;23;20026;-82
2023/06/27 08:14:45;;;;;;;6.35;5.95;;;;;;;20.63;57.12;100901.44;6044888;23;20070;-81
2023/06/27 08:17:11;;;;;;;6.97;6.20;;;;;;;22.77;56.03;101132.50;6076550;23;20049;-81
2023/06/27 08:19:38;;;;;;;6.57;6.18;;;;;;;22.35;56.91;101156.16;6073171;23;20088;-81
2023/06/27 08:22:06;;;;;;;6.55;6.05;;;;;;;19.26;57.36;100703.25;6043392;23;20014;-80
2023/06/27 08:24:32;;;;;;;6.22;5.82;;;;;;;22.12;56.84;101164.50;6041413;23;20120;-83
2023/06/27 08:26:59;;;;;;;7.88;6.40;;;;;;;23.13;56.25;101271.78;6045315;23;20373;-80
2023/06/27 08:29:26;;;;;;;6.53;6.00;;;;;;;23.20;55.43;101229.22;6048192;23;20074;-81
2023/06/27 08:31:58;;;;;;;7.35;5.88;;;;;;;20.65;55.49;100856.78;6068566;23;20082;-82
2023/06/27 08:34:26;;;;;;;5.90;5.60;;;;;;;22.64;55.17;101148.03;6044974;23;20038;-81
2023/06/27 08:36:52;;;;;;;6.10;5.80;;;;;;;22.88;55.54;101155.53;6050474;23;20014;-81
2023/06/27 08:39:19;;;;;;;6.30;5.80;;;;;;;23.15;53.98;101157.34;6043933;23;20197;-81
2023/06/27 08:41:46;;;;;;;6.32;5.88;;;;;;;23.41;53.58;101181.56;6041068;23;20227;-83
2023/06/27 08:44:14;;;;;;;6.35;5.97;;;;;;;23.72;53.24;101181.19;6070446;23;20116;-81
2023/06/27 08:46:43;;;;;;;6.05;5.65;;;;;;;23.77;52.74;101143.19;6070282;23;20033;-81
2023/06/27 08:49:24;;;;;;;6.68;5.40;;;;;;;22.11;52.62;100951.66;6041487;23;20088;-81
2023/06/27 08:51:55;;;;;;;5.85;5.50;;;;;;;22.72;53.35;101041.09;6041287;23;20026;-82
2023/06/27 08:54:36;;;;;;;6.28;5.75;;;;;;;24.04;51.22;101107.41;6069954;23;20175;-81
2023/06/27 08:57:04;;;;;;;6.03;5.72;;;;;;;22.14;51.44;100838.25;6075353;23;20401;-81
2023/06/27 08:59:37;;;;;;;8.70;6.25;;;;;;;23.02;50.37;100959.63;6041180;23;20025;-81
2023/06/27 09:02:06;;;;;;;6.32;5.82;;;;;;;21.53;51.38;100763.13;6047203;23;20058;-82
2023/06/27 09:04:33;;;;;;;6.25;5.90;;;;;;;22.04;50.58;100828.44;6070103;23;20022;-82
2023/06/27 09:07:01;;;;;;;6.13;5.82;;;;;;;22.96;49.56;100901.34;6018656;23;20065;-82
2023/06/27 09:09:30;;;;;;;6.07;5.68;;;;;;;22.79;49.89;100904.88;6047716;23;20061;-83
2023/06/27 09:12:01;;;;;;;6.10;5.80;;;;;;;22.64;49.97;100851.91;6066490;23;25080;-81
2023/06/27 09:14:31;;;;;;;6.05;5.75;;;;;;;22.98;48.95;100848.47;6065086;23;20033;-82
2023/06/27 09:16:57;;;;;;;6.82;6.25;;;;;;;23.93;49.43;101054.03;6039058;23;20215;-81
2023/06/27 09:19:24;;;;;;;6.93;6.30;;;;;;;22.17;48.86;100725.66;6081761;23;20103;-81
2023/06/27 09:21:52;;;;;;;6.35;5.70;;;;;;;22.53;49.53;100830.75;6052664;23;20027;-80
2023/06/27 09:24:22;;;;;;;5.70;5.40;;;;;;;23.44;48.38;100877.75;6086795;23;20085;-81
2023/06/27 09:26:49;;;;;;;6.97;6.05;;;;;;;22.21;48.26;100701.16;6056024;23;20042;-81
2023/06/27 09:29:16;;;;;;;6.60;5.82;;;;;;;23.26;49.19;100899.22;6085851;23;20384;-83
2023/06/27 09:31:43;;;;;;;8.40;6.32;;;;;;;24.05;49.22;101010.69;6052216;23;20106;-81
2023/06/27 09:34:10;;;;;;;6.38;5.90;;;;;;;22.16;48.81;100764.09;6056083;23;20026;-82
2023/06/27 09:36:38;;;;;;;5.90;5.60;;;;;;;22.26;48.75;100720.25;6039011;23;20050;-83
2023/06/27 09:39:13;;;;;;;6.15;5.75;;;;;;;22.24;47.77;100644.72;6065318;23;20058;-83
2023/06/27 09:41:57;;;;;;;6.28;5.55;;;;;;;23.13;48.25;100845.25;6037688;23;20262;-85
2023/06/27 09:44:27;;;;;;;7.55;5.78;;;;;;;22.07;47.53;100645.56;6070626;23;20132;-83
2023/06/27 09:46:56;;;;;;;6.13;5.72;;;;;;;20.62;47.14;100411.75;6038323;23;20018;-81
2023/06/27 09:49:24;;;;;;;6.63;5.80;;;;;;;22.78;47.25;100786.31;6088624;23;20464;-84
2023/06/27 09:52:18;;;;;;;6.18;5.85;;;;;;;21.44;46.55;100529.91;6038357;23;20234;-83
2023/06/27 09:54:46;;;;;;;6.22;5.70;;;;;;;22.71;46.93;100777.22;6089509;23;20043;-82
2023/06/27 09:57:14;;;;;;;6.20;5.70;;;;;;;22.69;46.45;100718.53;6039685;23;20048;-81
2023/06/27 09:59:41;;;;;;;5.90;5.60;;;;;;;24.19;46.23;100971.69;6094357;23;20017;-83
2023/06/27 10:02:14;;;;;;;6.25;5.55;;;;;;;24.54;46.68;101044.97;6066530;23;20049;-80
2023/06/27 10:04:41;;;;;;;6.13;5.82;;;;;;;23.58;47.66;100949.47;6096700;23;20010;-83
2023/06/27 10:07:09;;;;;;;5.82;5.53;;;;;;;24.31;47.02;101033.09;6061020;23;20030;-81
2023/06/27 10:09:37;;;;;;;5.90;5.40;;;;;;;24.44;48.01;101098.72;6065555;23;20026;-82
2023/06/27 10:12:07;;;;;;;5.85;5.55;;;;;;;24.00;46.75;100962.09;6040349;23;20084;-83
2023/06/27 10:14:36;;;;;;;6.15;5.75;;;;;;;22.81;47.32;100830.63;6075682;23;20417;-81
2023/06/27 10:17:04;;;;;;;6.43;6.00;;;;;;;23.83;46.21;100917.44;6093431;23;20312;-81
2023/06/27 10:19:37;;;;;;;5.97;5.57;;;;;;;24.11;46.91;100990.44;6080454;23;20259;-80
2023/06/27 10:22:10;;;;;;;6.50;5.70;;;;;;;24.23;46.62;100978.41;6081353;23;20376;-81
2023/06/27 10:24:42;;;;;;;6.00;5.60;;;;;;;21.96;46.03;100633.28;6072122;23;20029;-80
2023/06/27 10:27:12;;;;;;;5.75;5.28;;;;;;;24.87;46.42;101066.50;6098943;23;20081;-81
2023/06/27 10:29:41;;;;;;;5.63;5.32;;;;;;;22.11;45.74;100588.97;6073459;23;20021;-83
2023/06/27 10:32:09;;;;;;;7.00;5.80;;;;;;;24.69;46.33;101039.78;6073511;23;20142;-81
2023/06/27 10:34:40;;;;;;;5.72;5.43;;;;;;;24.52;45.02;100963.78;6078072;23;20663;-82
2023/06/27 10:37:22;;;;;;;5.80;5.50;;;;;;;25.16;44.62;101033.84;6076965;23;20140;-81
2023/06/27 10:40:00;;;;;;;5.80;5.40;;;;;;;24.03;41.48;100669.53;6073825;23;20034;-80
2023/06/27 10:42:32;;;;;;;6.45;5.97;;;;;;;25.27;40.66;100797.13;6045988;23;20026;-83
2023/06/27 10:45:03;;;;;;;6.88;5.53;;;;;;;25.73;40.83;100836.72;6078663;23;20018;-81
2023/06/27 10:47:35;;;;;;;6.20;5.70;;;;;;;25.41;42.32;100924.50;6073117;23;20107;-80
2023/06/27 10:50:08;;;;;;;5.88;5.57;;;;;;;24.17;41.50;100678.72;6078756;23;20037;-81
2023/06/27 10:52:35;;;;;;;5.80;5.50;;;;;;;23.63;42.40;100686.41;6075598;23;20112;-81
2023/06/27 10:55:13;;;;;;;6.60;6.00;;;;;;;24.87;42.77;100908.13;6078757;23;20033;-80
2023/06/27 10:57:43;;;;;;;5.68;5.38;;;;;;;24.69;43.76;100945.84;6095396;23;20141;-81
2023/06/27 11:00:14;;;;;;;5.97;5.68;;;;;;;25.05;43.77;100992.00;6078360;23;20034;-82
2023/06/27 11:02:45;;;;;;;6.22;5.72;;;;;;;23.47;43.77;100749.69;6072736;23;20010;-81
2023/06/27 11:05:16;;;;;;;7.83;5.50;;;;;;;23.38;43.71;100709.66;6090249;23;20094;-83
2023/06/27 11:07:53;;;;;;;5.90;5.60;;;;;;;25.29;42.72;100955.44;6099652;23;20290;-82
2023/06/27 11:10:25;;;;;;;5.60;5.20;;;;;;;24.99;41.81;100836.94;6102837;23;20073;-81
2023/06/27 11:13:12;;;;;;;;;;;;;;;25.67;40.15;100883.13;6103661;23;20109;-81
2023/06/27 11:15:38;;;;;;;6.00;5.60;;;;;;;24.93;41.46;100823.38;6100844;23;19973;-81
2023/06/27 11:18:06;;;;;;;5.90;5.60;;;;;;;24.07;41.90;100719.16;6072754;23;20082;-80
2023/06/27 11:20:35;;;;;;;5.80;5.50;;;;;;;25.45;41.73;100960.78;6072647;23;20573;-81
2023/06/27 11:23:03;;;;;;;6.13;5.72;;;;;;;24.67;42.56;100883.47;6105585;23;20022;-81
2023/06/27 11:25:42;;;;;;;6.18;5.78;;;;;;;24.91;42.35;100881.78;6100874;23;20017;-81
2023/06/27 11:28:11;;;;;;;6.68;6.07;;;;;;;24.72;42.65;100854.28;6097454;23;20056;-81
2023/06/27 11:30:38;;;;;;;6.38;5.80;;;;;;;23.33;42.84;100653.88;6077932;23;20025;-80
2023/06/27 11:33:06;;;;;;;5.90;5.50;;;;;;;25.25;41.94;100882.41;6100110;23;20458;-79